sensor_id;sensor_type;location;lat;lon;timestamp;temperature;humidity
38860;DHT22;24609;48.316;16.174;2023-07-29T00:01:24;20.20;99.90
38860;DHT22;24609;48.316;16.174;2023-07-29T00:03:49;20.10;99.90
38860;DHT22;24609;48.316;16.174;2023-07-29T00:06:15;20.00;99.90
38860;DHT22;24609;48.316;16.174;2023-07-29T00:08:41;20.00;99.90
38860;DHT22;24609;48.316;16.174;2023-07-29T00:11:06;19.90;99.90
38860;DHT22;24609;48.316;16.174;2023-07-29T00:13:32;19.90;99.90
38860;DHT22;24609;48.316;16.174;2023-07-29T00:15:59;19.90;99.90
38860;DHT22;24609;48.316;16.174;2023-07-29T00:18:25;19.90;99.90
38860;DHT22;24609;48.316;16.174;2023-07-29T00:20:51;19.90;99.90
38860;DHT22;24609;48.316;16.174;2023-07-29T00:23:17;20.00;99.90
38860;DHT22;24609;48.316;16.174;2023-07-29T00:25:44;20.00;99.90
38860;DHT22;24609;48.316;16.174;2023-07-29T00:28:11;20.00;99.90
38860;DHT22;24609;48.316;16.174;2023-07-29T00:30:36;20.10;99.90
38860;DHT22;24609;48.316;16.174;2023-07-29T00:33:02;20.10;99.90
38860;DHT22;24609;48.316;16.174;2023-07-29T00:35:28;20.10;99.90
38860;DHT22;24609;48.316;16.174;2023-07-29T00:37:53;20.00;99.90
38860;DHT22;24609;48.316;16.174;2023-07-29T00:40:21;20.00;99.90
38860;DHT22;24609;48.316;16.174;2023-07-29T00:42:47;20.10;99.90
38860;DHT22;24609;48.316;16.174;2023-07-29T00:45:13;20.10;99.90
38860;DHT22;24609;48.316;16.174;2023-07-29T00:47:39;20.20;99.90
38860;DHT22;24609;48.316;16.174;2023-07-29T00:50:06;20.20;99.90
38860;DHT22;24609;48.316;16.174;2023-07-29T00:52:32;20.30;99.90
38860;DHT22;24609;48.316;16.174;2023-07-29T00:54:58;20.30;99.90
38860;DHT22;24609;48.316;16.174;2023-07-29T00:57:24;20.30;99.90
38860;DHT22;24609;48.316;16.174;2023-07-29T00:59:51;20.30;99.90
38860;DHT22;24609;48.316;16.174;2023-07-29T01:02:17;20.30;99.90
38860;DHT22;24609;48.316;16.174;2023-07-29T01:04:43;20.30;99.90
38860;DHT22;24609;48.316;16.174;2023-07-29T01:07:12;20.20;99.90
38860;DHT22;24609;48.316;16.174;2023-07-29T01:12:49;20.20;99.90
38860;DHT22;24609;48.316;16.174;2023-07-29T01:18:01;20.20;99.90
38860;DHT22;24609;48.316;16.174;2023-07-29T01:20:36;20.20;99.90
38860;DHT22;24609;48.316;16.174;2023-07-29T01:23:02;20.10;99.90
38860;DHT22;24609;48.316;16.174;2023-07-29T01:25:28;20.10;99.90
38860;DHT22;24609;48.316;16.174;2023-07-29T01:27:53;20.10;99.90
38860;DHT22;24609;48.316;16.174;2023-07-29T01:30:24;20.20;99.90
38860;DHT22;24609;48.316;16.174;2023-07-29T01:32:59;20.10;99.90
38860;DHT22;24609;48.316;16.174;2023-07-29T01:38:23;20.00;99.90
38860;DHT22;24609;48.316;16.174;2023-07-29T01:40:50;20.00;99.90
38860;DHT22;24609;48.316;16.174;2023-07-29T01:43:16;19.90;99.90
38860;DHT22;24609;48.316;16.174;2023-07-29T01:45:44;19.80;99.90
38860;DHT22;24609;48.316;16.174;2023-07-29T01:48:09;19.80;99.90
38860;DHT22;24609;48.316;16.174;2023-07-29T01:50:35;19.80;99.90
38860;DHT22;24609;48.316;16.174;2023-07-29T01:53:01;19.70;99.90
38860;DHT22;24609;48.316;16.174;2023-07-29T01:55:27;19.60;99.90
38860;DHT22;24609;48.316;16.174;2023-07-29T01:57:52;19.70;99.90
38860;DHT22;24609;48.316;16.174;2023-07-29T02:00:19;19.70;99.90
38860;DHT22;24609;48.316;16.174;2023-07-29T02:02:44;19.70;99.90
38860;DHT22;24609;48.316;16.174;2023-07-29T02:05:10;19.70;99.90
38860;DHT22;24609;48.316;16.174;2023-07-29T02:07:36;19.70;99.90
38860;DHT22;24609;48.316;16.174;2023-07-29T02:10:02;19.60;99.90
38860;DHT22;24609;48.316;16.174;2023-07-29T02:12:28;19.70;99.90
38860;DHT22;24609;48.316;16.174;2023-07-29T02:14:53;19.80;99.90
38860;DHT22;24609;48.316;16.174;2023-07-29T02:17:19;19.80;99.90
38860;DHT22;24609;48.316;16.174;2023-07-29T02:19:45;19.90;99.90
38860;DHT22;24609;48.316;16.174;2023-07-29T02:22:13;20.00;99.90
38860;DHT22;24609;48.316;16.174;2023-07-29T02:24:39;20.10;99.90
38860;DHT22;24609;48.316;16.174;2023-07-29T02:27:05;20.10;99.90
38860;DHT22;24609;48.316;16.174;2023-07-29T02:29:30;20.10;99.90
38860;DHT22;24609;48.316;16.174;2023-07-29T02:31:59;20.10;99.90
38860;DHT22;24609;48.316;16.174;2023-07-29T02:34:24;20.00;99.90
38860;DHT22;24609;48.316;16.174;2023-07-29T02:36:50;20.00;99.90
38860;DHT22;24609;48.316;16.174;2023-07-29T02:39:16;20.00;99.90
38860;DHT22;24609;48.316;16.174;2023-07-29T02:41:42;20.00;99.90
38860;DHT22;24609;48.316;16.174;2023-07-29T02:44:07;20.00;99.90
38860;DHT22;24609;48.316;16.174;2023-07-29T02:46:33;20.00;99.90
38860;DHT22;24609;48.316;16.174;2023-07-29T02:48:59;19.90;99.90
38860;DHT22;24609;48.316;16.174;2023-07-29T02:51:24;19.80;99.90
38860;DHT22;24609;48.316;16.174;2023-07-29T02:53:50;19.60;99.90
38860;DHT22;24609;48.316;16.174;2023-07-29T02:56:16;19.60;99.90
38860;DHT22;24609;48.316;16.174;2023-07-29T02:58:42;19.50;99.90
38860;DHT22;24609;48.316;16.174;2023-07-29T03:01:07;19.40;99.90
38860;DHT22;24609;48.316;16.174;2023-07-29T03:03:33;19.40;99.90
38860;DHT22;24609;48.316;16.174;2023-07-29T03:06:04;19.40;99.90
38860;DHT22;24609;48.316;16.174;2023-07-29T03:08:30;19.40;99.90
38860;DHT22;24609;48.316;16.174;2023-07-29T03:11:04;19.40;99.90
38860;DHT22;24609;48.316;16.174;2023-07-29T03:13:30;19.40;99.90
38860;DHT22;24609;48.316;16.174;2023-07-29T03:16:05;19.40;99.90
38860;DHT22;24609;48.316;16.174;2023-07-29T03:18:31;19.40;99.90
38860;DHT22;24609;48.316;16.174;2023-07-29T03:20:56;19.40;99.90
38860;DHT22;24609;48.316;16.174;2023-07-29T03:23:22;19.20;99.90
38860;DHT22;24609;48.316;16.174;2023-07-29T03:25:50;19.10;99.90
38860;DHT22;24609;48.316;16.174;2023-07-29T03:28:26;19.00;99.90
38860;DHT22;24609;48.316;16.174;2023-07-29T03:30:53;18.90;99.90
38860;DHT22;24609;48.316;16.174;2023-07-29T03:33:19;18.90;99.90
38860;DHT22;24609;48.316;16.174;2023-07-29T03:35:45;19.00;99.90
38860;DHT22;24609;48.316;16.174;2023-07-29T03:38:11;19.00;99.90
38860;DHT22;24609;48.316;16.174;2023-07-29T03:40:40;19.10;99.90
38860;DHT22;24609;48.316;16.174;2023-07-29T03:43:06;19.20;99.90
38860;DHT22;24609;48.316;16.174;2023-07-29T03:45:33;19.30;99.90
38860;DHT22;24609;48.316;16.174;2023-07-29T03:47:58;19.30;99.90
38860;DHT22;24609;48.316;16.174;2023-07-29T03:50:24;19.40;99.90
38860;DHT22;24609;48.316;16.174;2023-07-29T03:52:50;19.40;99.90
38860;DHT22;24609;48.316;16.174;2023-07-29T03:55:16;19.60;99.90
38860;DHT22;24609;48.316;16.174;2023-07-29T03:57:42;19.70;99.90
38860;DHT22;24609;48.316;16.174;2023-07-29T04:00:08;19.80;99.90
38860;DHT22;24609;48.316;16.174;2023-07-29T04:02:36;19.90;99.90
38860;DHT22;24609;48.316;16.174;2023-07-29T04:05:03;20.00;99.90
38860;DHT22;24609;48.316;16.174;2023-07-29T04:07:30;20.10;99.90
38860;DHT22;24609;48.316;16.174;2023-07-29T04:09:55;20.10;99.90
38860;DHT22;24609;48.316;16.174;2023-07-29T04:12:22;20.20;99.90
38860;DHT22;24609;48.316;16.174;2023-07-29T04:14:48;20.20;99.90
38860;DHT22;24609;48.316;16.174;2023-07-29T04:17:14;20.20;99.90
38860;DHT22;24609;48.316;16.174;2023-07-29T04:19:39;20.20;99.90
38860;DHT22;24609;48.316;16.174;2023-07-29T04:22:05;20.30;99.90
38860;DHT22;24609;48.316;16.174;2023-07-29T04:24:31;20.40;99.90
38860;DHT22;24609;48.316;16.174;2023-07-29T04:26:56;20.60;99.90
38860;DHT22;24609;48.316;16.174;2023-07-29T04:29:22;20.70;99.90
38860;DHT22;24609;48.316;16.174;2023-07-29T04:31:49;20.80;99.90
38860;DHT22;24609;48.316;16.174;2023-07-29T04:34:15;20.80;99.90
38860;DHT22;24609;48.316;16.174;2023-07-29T04:36:41;20.80;99.90
38860;DHT22;24609;48.316;16.174;2023-07-29T04:39:06;20.90;99.90
38860;DHT22;24609;48.316;16.174;2023-07-29T04:41:33;20.90;99.90
38860;DHT22;24609;48.316;16.174;2023-07-29T04:43:58;20.80;99.90
38860;DHT22;24609;48.316;16.174;2023-07-29T04:46:24;20.80;99.90
38860;DHT22;24609;48.316;16.174;2023-07-29T04:48:50;20.80;99.90
38860;DHT22;24609;48.316;16.174;2023-07-29T04:51:15;20.90;99.90
38860;DHT22;24609;48.316;16.174;2023-07-29T04:53:41;20.90;99.90
38860;DHT22;24609;48.316;16.174;2023-07-29T04:56:07;21.00;99.90
38860;DHT22;24609;48.316;16.174;2023-07-29T04:58:32;21.00;99.90
38860;DHT22;24609;48.316;16.174;2023-07-29T05:01:03;21.10;99.90
38860;DHT22;24609;48.316;16.174;2023-07-29T05:03:29;21.20;99.90
38860;DHT22;24609;48.316;16.174;2023-07-29T05:05:57;21.40;99.90
38860;DHT22;24609;48.316;16.174;2023-07-29T05:08:23;21.50;99.90
38860;DHT22;24609;48.316;16.174;2023-07-29T05:10:50;21.60;99.90
38860;DHT22;24609;48.316;16.174;2023-07-29T05:13:16;21.70;99.90
38860;DHT22;24609;48.316;16.174;2023-07-29T05:15:42;21.70;99.90
38860;DHT22;24609;48.316;16.174;2023-07-29T05:18:08;21.60;99.90
38860;DHT22;24609;48.316;16.174;2023-07-29T05:20:33;21.50;99.90
38860;DHT22;24609;48.316;16.174;2023-07-29T05:22:59;21.60;99.90
38860;DHT22;24609;48.316;16.174;2023-07-29T05:25:26;21.80;99.90
38860;DHT22;24609;48.316;16.174;2023-07-29T05:27:51;22.00;99.90
38860;DHT22;24609;48.316;16.174;2023-07-29T05:30:17;22.10;99.90
38860;DHT22;24609;48.316;16.174;2023-07-29T05:32:43;22.30;99.90
38860;DHT22;24609;48.316;16.174;2023-07-29T05:35:09;22.30;99.90
38860;DHT22;24609;48.316;16.174;2023-07-29T05:37:37;22.30;99.90
38860;DHT22;24609;48.316;16.174;2023-07-29T05:40:03;22.40;99.90
38860;DHT22;24609;48.316;16.174;2023-07-29T05:42:29;22.30;99.90
38860;DHT22;24609;48.316;16.174;2023-07-29T05:44:55;22.40;99.90
38860;DHT22;24609;48.316;16.174;2023-07-29T05:47:21;22.80;99.90
38860;DHT22;24609;48.316;16.174;2023-07-29T05:49:46;22.60;99.90
38860;DHT22;24609;48.316;16.174;2023-07-29T05:52:12;22.60;99.90
38860;DHT22;24609;48.316;16.174;2023-07-29T05:54:38;22.70;99.90
38860;DHT22;24609;48.316;16.174;2023-07-29T05:57:04;22.70;99.90
38860;DHT22;24609;48.316;16.174;2023-07-29T05:59:30;22.60;99.90
38860;DHT22;24609;48.316;16.174;2023-07-29T06:01:56;22.70;99.90
38860;DHT22;24609;48.316;16.174;2023-07-29T06:04:21;22.80;99.90
38860;DHT22;24609;48.316;16.174;2023-07-29T06:06:47;22.70;99.90
38860;DHT22;24609;48.316;16.174;2023-07-29T06:09:13;22.80;99.90
38860;DHT22;24609;48.316;16.174;2023-07-29T06:11:38;22.90;99.90
38860;DHT22;24609;48.316;16.174;2023-07-29T06:14:04;22.80;99.90
38860;DHT22;24609;48.316;16.174;2023-07-29T06:16:30;22.90;99.90
38860;DHT22;24609;48.316;16.174;2023-07-29T06:18:56;23.10;99.90
38860;DHT22;24609;48.316;16.174;2023-07-29T06:21:22;23.30;99.90
38860;DHT22;24609;48.316;16.174;2023-07-29T06:23:48;23.40;99.90
38860;DHT22;24609;48.316;16.174;2023-07-29T06:26:14;23.10;99.90
38860;DHT22;24609;48.316;16.174;2023-07-29T06:28:39;23.00;99.90
38860;DHT22;24609;48.316;16.174;2023-07-29T06:31:05;23.00;99.90
38860;DHT22;24609;48.316;16.174;2023-07-29T06:33:30;23.20;99.90
38860;DHT22;24609;48.316;16.174;2023-07-29T06:35:56;23.50;99.90
38860;DHT22;24609;48.316;16.174;2023-07-29T06:38:22;24.10;99.90
38860;DHT22;24609;48.316;16.174;2023-07-29T06:40:48;24.70;99.90
38860;DHT22;24609;48.316;16.174;2023-07-29T06:43:14;24.50;99.90
38860;DHT22;24609;48.316;16.174;2023-07-29T06:45:40;24.40;99.90
38860;DHT22;24609;48.316;16.174;2023-07-29T06:48:05;24.00;99.90
38860;DHT22;24609;48.316;16.174;2023-07-29T06:50:31;23.90;99.90
38860;DHT22;24609;48.316;16.174;2023-07-29T06:52:57;23.60;99.90
38860;DHT22;24609;48.316;16.174;2023-07-29T06:55:22;23.60;99.90
38860;DHT22;24609;48.316;16.174;2023-07-29T06:57:48;23.30;99.90
38860;DHT22;24609;48.316;16.174;2023-07-29T07:00:14;23.00;99.90
38860;DHT22;24609;48.316;16.174;2023-07-29T07:02:39;23.10;99.90
38860;DHT22;24609;48.316;16.174;2023-07-29T07:05:05;24.30;99.90
38860;DHT22;24609;48.316;16.174;2023-07-29T07:07:31;24.60;99.90
38860;DHT22;24609;48.316;16.174;2023-07-29T07:09:57;25.00;99.90
38860;DHT22;24609;48.316;16.174;2023-07-29T07:12:22;25.40;99.90
38860;DHT22;24609;48.316;16.174;2023-07-29T07:14:48;26.10;99.90
38860;DHT22;24609;48.316;16.174;2023-07-29T07:17:13;26.30;98.50
38860;DHT22;24609;48.316;16.174;2023-07-29T07:19:39;26.10;99.00
38860;DHT22;24609;48.316;16.174;2023-07-29T07:22:05;26.30;98.20
38860;DHT22;24609;48.316;16.174;2023-07-29T07:24:31;26.70;97.10
38860;DHT22;24609;48.316;16.174;2023-07-29T07:26:56;26.10;98.30
38860;DHT22;24609;48.316;16.174;2023-07-29T07:29:22;25.80;98.30
38860;DHT22;24609;48.316;16.174;2023-07-29T07:31:52;26.40;97.90
38860;DHT22;24609;48.316;16.174;2023-07-29T07:34:19;26.80;96.80
38860;DHT22;24609;48.316;16.174;2023-07-29T07:36:45;27.00;97.00
38860;DHT22;24609;48.316;16.174;2023-07-29T07:39:11;26.20;97.10
38860;DHT22;24609;48.316;16.174;2023-07-29T07:41:37;26.40;97.40
38860;DHT22;24609;48.316;16.174;2023-07-29T07:44:03;27.20;96.20
38860;DHT22;24609;48.316;16.174;2023-07-29T07:46:29;27.30;95.50
38860;DHT22;24609;48.316;16.174;2023-07-29T07:48:54;26.90;95.10
38860;DHT22;24609;48.316;16.174;2023-07-29T07:51:20;27.20;95.30
38860;DHT22;24609;48.316;16.174;2023-07-29T07:53:46;27.30;94.70
38860;DHT22;24609;48.316;16.174;2023-07-29T07:56:11;27.00;95.40
38860;DHT22;24609;48.316;16.174;2023-07-29T07:58:38;27.00;95.00
38860;DHT22;24609;48.316;16.174;2023-07-29T08:01:04;27.00;95.50
38860;DHT22;24609;48.316;16.174;2023-07-29T08:03:31;26.70;94.80
38860;DHT22;24609;48.316;16.174;2023-07-29T08:05:56;27.40;94.80
38860;DHT22;24609;48.316;16.174;2023-07-29T08:08:22;28.50;92.60
38860;DHT22;24609;48.316;16.174;2023-07-29T08:10:48;27.90;92.20
38860;DHT22;24609;48.316;16.174;2023-07-29T08:13:13;28.00;92.30
38860;DHT22;24609;48.316;16.174;2023-07-29T08:15:39;28.80;90.70
38860;DHT22;24609;48.316;16.174;2023-07-29T08:18:06;30.00;88.10
38860;DHT22;24609;48.316;16.174;2023-07-29T08:20:32;29.60;86.90
38860;DHT22;24609;48.316;16.174;2023-07-29T08:22:58;30.60;84.00
38860;DHT22;24609;48.316;16.174;2023-07-29T08:25:24;30.30;82.80
38860;DHT22;24609;48.316;16.174;2023-07-29T08:27:49;30.50;80.40
38860;DHT22;24609;48.316;16.174;2023-07-29T08:30:15;30.90;81.80
38860;DHT22;24609;48.316;16.174;2023-07-29T08:32:41;32.50;77.20
38860;DHT22;24609;48.316;16.174;2023-07-29T08:35:07;33.20;71.10
38860;DHT22;24609;48.316;16.174;2023-07-29T08:37:33;35.10;65.00
38860;DHT22;24609;48.316;16.174;2023-07-29T08:39:59;34.40;58.60
38860;DHT22;24609;48.316;16.174;2023-07-29T08:42:29;32.60;63.80
38860;DHT22;24609;48.316;16.174;2023-07-29T08:44:56;32.70;62.40
38860;DHT22;24609;48.316;16.174;2023-07-29T08:47:27;33.00;64.60
38860;DHT22;24609;48.316;16.174;2023-07-29T08:49:54;32.10;61.40
38860;DHT22;24609;48.316;16.174;2023-07-29T08:52:21;32.20;63.10
38860;DHT22;24609;48.316;16.174;2023-07-29T08:54:47;35.50;58.50
38860;DHT22;24609;48.316;16.174;2023-07-29T08:57:13;36.30;53.60
38860;DHT22;24609;48.316;16.174;2023-07-29T08:59:39;35.00;54.20
38860;DHT22;24609;48.316;16.174;2023-07-29T09:02:06;33.40;54.90
38860;DHT22;24609;48.316;16.174;2023-07-29T09:04:32;34.10;55.70
38860;DHT22;24609;48.316;16.174;2023-07-29T09:06:59;32.90;54.10
38860;DHT22;24609;48.316;16.174;2023-07-29T09:09:25;32.90;54.70
38860;DHT22;24609;48.316;16.174;2023-07-29T09:11:51;34.80;50.60
38860;DHT22;24609;48.316;16.174;2023-07-29T09:14:17;36.80;50.10
38860;DHT22;24609;48.316;16.174;2023-07-29T09:16:43;37.00;47.50
38860;DHT22;24609;48.316;16.174;2023-07-29T09:19:09;37.20;46.50
38860;DHT22;24609;48.316;16.174;2023-07-29T09:21:38;36.40;47.00
38860;DHT22;24609;48.316;16.174;2023-07-29T09:24:05;35.40;47.60
38860;DHT22;24609;48.316;16.174;2023-07-29T09:26:33;34.40;48.60
38860;DHT22;24609;48.316;16.174;2023-07-29T09:28:59;34.30;47.80
38860;DHT22;24609;48.316;16.174;2023-07-29T09:31:27;35.50;47.00
38860;DHT22;24609;48.316;16.174;2023-07-29T09:33:57;37.10;45.70
38860;DHT22;24609;48.316;16.174;2023-07-29T09:36:23;36.40;44.40
38860;DHT22;24609;48.316;16.174;2023-07-29T09:38:55;38.70;42.10
38860;DHT22;24609;48.316;16.174;2023-07-29T09:41:28;40.70;41.80
38860;DHT22;24609;48.316;16.174;2023-07-29T09:44:01;37.70;38.10
38860;DHT22;24609;48.316;16.174;2023-07-29T09:46:33;37.10;41.70
38860;DHT22;24609;48.316;16.174;2023-07-29T09:49:00;38.90;38.60
38860;DHT22;24609;48.316;16.174;2023-07-29T09:51:27;38.70;37.20
38860;DHT22;24609;48.316;16.174;2023-07-29T09:53:52;39.70;37.40
38860;DHT22;24609;48.316;16.174;2023-07-29T09:56:26;37.70;36.50
38860;DHT22;24609;48.316;16.174;2023-07-29T09:58:52;38.50;36.90
38860;DHT22;24609;48.316;16.174;2023-07-29T10:01:18;38.90;34.30
38860;DHT22;24609;48.316;16.174;2023-07-29T10:03:44;37.50;35.70
38860;DHT22;24609;48.316;16.174;2023-07-29T10:06:11;37.10;34.80
38860;DHT22;24609;48.316;16.174;2023-07-29T10:08:39;36.60;36.30
38860;DHT22;24609;48.316;16.174;2023-07-29T10:11:09;37.60;34.60
38860;DHT22;24609;48.316;16.174;2023-07-29T10:13:36;37.70;34.40
38860;DHT22;24609;48.316;16.174;2023-07-29T10:16:03;39.70;34.60
38860;DHT22;24609;48.316;16.174;2023-07-29T10:18:30;40.40;32.40
38860;DHT22;24609;48.316;16.174;2023-07-29T10:20:58;38.80;31.90
38860;DHT22;24609;48.316;16.174;2023-07-29T10:23:24;40.40;31.80
38860;DHT22;24609;48.316;16.174;2023-07-29T10:26:01;40.90;29.90
38860;DHT22;24609;48.316;16.174;2023-07-29T10:28:30;40.60;29.30
38860;DHT22;24609;48.316;16.174;2023-07-29T10:30:57;37.40;30.40
38860;DHT22;24609;48.316;16.174;2023-07-29T10:33:24;37.50;32.20
38860;DHT22;24609;48.316;16.174;2023-07-29T10:35:50;39.20;31.20
38860;DHT22;24609;48.316;16.174;2023-07-29T10:38:16;39.50;29.20
38860;DHT22;24609;48.316;16.174;2023-07-29T10:40:48;39.30;29.20
38860;DHT22;24609;48.316;16.174;2023-07-29T10:43:34;37.20;30.20
38860;DHT22;24609;48.316;16.174;2023-07-29T10:46:21;36.80;30.30
38860;DHT22;24609;48.316;16.174;2023-07-29T10:51:23;40.30;28.30
38860;DHT22;24609;48.316;16.174;2023-07-29T10:53:57;40.30;27.60
38860;DHT22;24609;48.316;16.174;2023-07-29T10:56:30;41.00;26.40
38860;DHT22;24609;48.316;16.174;2023-07-29T10:59:53;40.20;27.50
38860;DHT22;24609;48.316;16.174;2023-07-29T11:01:59;40.30;26.20
38860;DHT22;24609;48.316;16.174;2023-07-29T11:04:26;38.70;27.20
38860;DHT22;24609;48.316;16.174;2023-07-29T11:12:36;45.80;22.00
38860;DHT22;24609;48.316;16.174;2023-07-29T11:15:14;43.10;21.20
38860;DHT22;24609;48.316;16.174;2023-07-29T11:17:44;42.10;22.40
38860;DHT22;24609;48.316;16.174;2023-07-29T11:20:11;38.30;25.70
38860;DHT22;24609;48.316;16.174;2023-07-29T11:22:38;35.50;28.50
38860;DHT22;24609;48.316;16.174;2023-07-29T11:25:04;34.30;29.60
38860;DHT22;24609;48.316;16.174;2023-07-29T11:27:31;33.60;31.20
38860;DHT22;24609;48.316;16.174;2023-07-29T11:29:58;35.80;29.30
38860;DHT22;24609;48.316;16.174;2023-07-29T11:32:24;40.00;25.30
38860;DHT22;24609;48.316;16.174;2023-07-29T11:34:50;40.20;25.10
38860;DHT22;24609;48.316;16.174;2023-07-29T11:37:16;41.50;23.70
38860;DHT22;24609;48.316;16.174;2023-07-29T11:39:43;41.10;22.40
38860;DHT22;24609;48.316;16.174;2023-07-29T11:42:13;39.90;24.20
38860;DHT22;24609;48.316;16.174;2023-07-29T11:44:39;39.40;25.60
38860;DHT22;24609;48.316;16.174;2023-07-29T11:47:08;38.80;25.70
38860;DHT22;24609;48.316;16.174;2023-07-29T11:49:39;40.80;24.90
38860;DHT22;24609;48.316;16.174;2023-07-29T11:52:07;41.40;22.90
38860;DHT22;24609;48.316;16.174;2023-07-29T11:54:37;41.50;23.20
38860;DHT22;24609;48.316;16.174;2023-07-29T11:57:06;41.00;23.60
38860;DHT22;24609;48.316;16.174;2023-07-29T11:59:34;41.00;23.90
38860;DHT22;24609;48.316;16.174;2023-07-29T12:02:13;41.20;23.10
38860;DHT22;24609;48.316;16.174;2023-07-29T12:04:41;40.60;23.20
38860;DHT22;24609;48.316;16.174;2023-07-29T12:07:07;40.10;23.10
38860;DHT22;24609;48.316;16.174;2023-07-29T12:09:36;40.00;23.80
38860;DHT22;24609;48.316;16.174;2023-07-29T12:12:04;41.20;24.00
38860;DHT22;24609;48.316;16.174;2023-07-29T12:14:30;39.30;24.20
38860;DHT22;24609;48.316;16.174;2023-07-29T12:17:00;39.40;23.80
38860;DHT22;24609;48.316;16.174;2023-07-29T12:19:35;42.00;22.30
38860;DHT22;24609;48.316;16.174;2023-07-29T12:22:02;41.30;23.00
38860;DHT22;24609;48.316;16.174;2023-07-29T12:24:30;40.40;23.90
38860;DHT22;24609;48.316;16.174;2023-07-29T12:26:56;39.90;25.20
38860;DHT22;24609;48.316;16.174;2023-07-29T12:29:22;36.50;26.00
38860;DHT22;24609;48.316;16.174;2023-07-29T12:31:48;33.90;30.00
38860;DHT22;24609;48.316;16.174;2023-07-29T12:34:21;32.60;32.10
38860;DHT22;24609;48.316;16.174;2023-07-29T12:36:49;33.60;31.10
38860;DHT22;24609;48.316;16.174;2023-07-29T12:39:21;33.90;33.20
38860;DHT22;24609;48.316;16.174;2023-07-29T12:41:48;34.20;33.40
38860;DHT22;24609;48.316;16.174;2023-07-29T12:44:14;36.90;30.20
38860;DHT22;24609;48.316;16.174;2023-07-29T12:46:40;37.80;28.60
38860;DHT22;24609;48.316;16.174;2023-07-29T12:49:06;37.60;28.70
38860;DHT22;24609;48.316;16.174;2023-07-29T12:51:32;35.60;30.90
38860;DHT22;24609;48.316;16.174;2023-07-29T12:53:58;34.70;31.40
38860;DHT22;24609;48.316;16.174;2023-07-29T12:56:23;34.70;33.10
38860;DHT22;24609;48.316;16.174;2023-07-29T12:58:49;33.80;32.10
38860;DHT22;24609;48.316;16.174;2023-07-29T13:01:15;34.30;32.10
38860;DHT22;24609;48.316;16.174;2023-07-29T13:03:44;35.50;28.10
38860;DHT22;24609;48.316;16.174;2023-07-29T13:06:10;34.30;27.90
38860;DHT22;24609;48.316;16.174;2023-07-29T13:08:35;34.10;28.90
38860;DHT22;24609;48.316;16.174;2023-07-29T13:11:02;32.20;30.20
38860;DHT22;24609;48.316;16.174;2023-07-29T13:13:27;30.60;32.80
38860;DHT22;24609;48.316;16.174;2023-07-29T13:15:53;29.50;35.00
38860;DHT22;24609;48.316;16.174;2023-07-29T13:18:19;29.60;35.90
38860;DHT22;24609;48.316;16.174;2023-07-29T13:20:44;30.10;34.60
38860;DHT22;24609;48.316;16.174;2023-07-29T13:23:10;31.10;35.00
38860;DHT22;24609;48.316;16.174;2023-07-29T13:25:36;34.30;30.20
38860;DHT22;24609;48.316;16.174;2023-07-29T13:28:01;34.80;29.00
38860;DHT22;24609;48.316;16.174;2023-07-29T13:30:27;32.30;31.50
38860;DHT22;24609;48.316;16.174;2023-07-29T13:32:53;31.10;34.60
38860;DHT22;24609;48.316;16.174;2023-07-29T13:35:18;30.00;36.30
38860;DHT22;24609;48.316;16.174;2023-07-29T13:37:44;29.20;37.60
38860;DHT22;24609;48.316;16.174;2023-07-29T13:40:10;29.10;38.90
38860;DHT22;24609;48.316;16.174;2023-07-29T13:42:36;29.00;39.10
38860;DHT22;24609;48.316;16.174;2023-07-29T13:45:02;29.30;39.80
38860;DHT22;24609;48.316;16.174;2023-07-29T13:47:28;30.30;36.80
38860;DHT22;24609;48.316;16.174;2023-07-29T13:49:53;29.90;37.50
38860;DHT22;24609;48.316;16.174;2023-07-29T13:52:19;30.30;37.90
38860;DHT22;24609;48.316;16.174;2023-07-29T13:54:45;31.30;37.20
38860;DHT22;24609;48.316;16.174;2023-07-29T13:57:10;32.90;34.50
38860;DHT22;24609;48.316;16.174;2023-07-29T13:59:36;32.90;33.60
38860;DHT22;24609;48.316;16.174;2023-07-29T14:02:05;33.60;33.00
38860;DHT22;24609;48.316;16.174;2023-07-29T14:04:32;33.10;32.80
38860;DHT22;24609;48.316;16.174;2023-07-29T14:06:58;32.20;34.20
38860;DHT22;24609;48.316;16.174;2023-07-29T14:09:24;33.80;33.30
38860;DHT22;24609;48.316;16.174;2023-07-29T14:11:50;38.50;28.50
38860;DHT22;24609;48.316;16.174;2023-07-29T14:14:16;40.30;25.40
38860;DHT22;24609;48.316;16.174;2023-07-29T14:16:41;41.10;24.30
38860;DHT22;24609;48.316;16.174;2023-07-29T14:19:07;40.80;24.70
38860;DHT22;24609;48.316;16.174;2023-07-29T14:21:33;41.60;24.50
38860;DHT22;24609;48.316;16.174;2023-07-29T14:23:58;42.50;24.10
38860;DHT22;24609;48.316;16.174;2023-07-29T14:26:24;43.60;22.40
38860;DHT22;24609;48.316;16.174;2023-07-29T14:28:50;44.10;22.30
38860;DHT22;24609;48.316;16.174;2023-07-29T14:31:16;43.40;21.60
38860;DHT22;24609;48.316;16.174;2023-07-29T14:33:45;40.40;23.00
38860;DHT22;24609;48.316;16.174;2023-07-29T14:36:11;39.80;24.30
38860;DHT22;24609;48.316;16.174;2023-07-29T14:38:36;41.20;23.00
38860;DHT22;24609;48.316;16.174;2023-07-29T14:41:03;41.30;22.50
38860;DHT22;24609;48.316;16.174;2023-07-29T14:43:30;39.60;24.20
38860;DHT22;24609;48.316;16.174;2023-07-29T14:45:56;36.70;26.60
38860;DHT22;24609;48.316;16.174;2023-07-29T14:48:22;35.20;29.00
38860;DHT22;24609;48.316;16.174;2023-07-29T14:50:48;34.60;29.80
38860;DHT22;24609;48.316;16.174;2023-07-29T14:53:13;34.30;30.40
38860;DHT22;24609;48.316;16.174;2023-07-29T14:55:39;35.90;28.20
38860;DHT22;24609;48.316;16.174;2023-07-29T14:58:05;37.50;27.20
38860;DHT22;24609;48.316;16.174;2023-07-29T15:00:30;34.60;27.60
38860;DHT22;24609;48.316;16.174;2023-07-29T15:02:56;33.10;31.00
38860;DHT22;24609;48.316;16.174;2023-07-29T15:05:22;33.10;32.10
38860;DHT22;24609;48.316;16.174;2023-07-29T15:07:47;32.90;32.20
38860;DHT22;24609;48.316;16.174;2023-07-29T15:10:17;32.20;32.80
38860;DHT22;24609;48.316;16.174;2023-07-29T15:12:43;31.10;33.90
38860;DHT22;24609;48.316;16.174;2023-07-29T15:15:10;31.10;35.20
38860;DHT22;24609;48.316;16.174;2023-07-29T15:17:36;31.10;35.00
38860;DHT22;24609;48.316;16.174;2023-07-29T15:20:03;30.80;36.90
38860;DHT22;24609;48.316;16.174;2023-07-29T15:22:29;30.20;37.30
38860;DHT22;24609;48.316;16.174;2023-07-29T15:24:55;29.80;38.50
38860;DHT22;24609;48.316;16.174;2023-07-29T15:27:21;32.80;35.00
38860;DHT22;24609;48.316;16.174;2023-07-29T15:29:48;35.00;30.70